Time;durP1;ratioP1;P1;durP2;ratioP2;P2;SDS_P1;SDS_P2;PMS_P1;PMS_P2;Temp;Humidity;BMP_temperature;BMP_pressure;BME280_temperature;BME280_humidity;BME280_pressure;Samples;Min_cycle;Max_cycle;Signal;HPM_P1;HPM_P2
2023/10/26 00:00:36;;;;;;;1.17;0.97;;;13.70;1.00;;;;;;5101260;28;20175;-79
2023/10/26 00:03:01;;;;;;;1.43;1.07;;;13.70;1.00;;;;;;5099209;28;20566;-79
2023/10/26 00:05:27;;;;;;;1.70;0.97;;;13.70;1.00;;;;;;5105261;28;20618;-78
2023/10/26 00:07:52;;;;;;;1.20;0.80;;;13.70;1.00;;;;;;5103410;28;20673;-76
2023/10/26 00:10:18;;;;;;;1.20;0.80;;;13.70;1.00;;;;;;5104754;28;20183;-78
2023/10/26 00:12:44;;;;;;;2.03;0.90;;;13.70;1.00;;;;;;5102235;28;20545;-80
2023/10/26 00:15:10;;;;;;;1.00;0.80;;;13.70;1.00;;;;;;5107689;28;20717;-80
2023/10/26 00:17:37;;;;;;;1.60;1.00;;;13.70;1.00;;;;;;5104669;28;20496;-81
2023/10/26 00:20:04;;;;;;;1.20;1.00;;;13.70;1.00;;;;;;5094018;28;20176;-78
2023/10/26 00:22:29;;;;;;;1.67;1.10;;;13.80;1.00;;;;;;5105065;28;20449;-77
2023/10/26 00:24:55;;;;;;;1.20;1.00;;;13.70;1.00;;;;;;5098969;28;20445;-78
2023/10/26 00:27:20;;;;;;;1.87;1.00;;;13.70;1.00;;;;;;5090691;28;20249;-80
2023/10/26 00:29:46;;;;;;;2.10;1.00;;;13.70;1.00;;;;;;5105879;28;20191;-78
2023/10/26 00:32:11;;;;;;;1.20;1.00;;;13.70;1.00;;;;;;5105637;28;20284;-78
2023/10/26 00:34:37;;;;;;;1.70;1.17;;;13.70;1.00;;;;;;5103315;28;20202;-79
2023/10/26 00:37:03;;;;;;;1.20;1.00;;;13.80;1.00;;;;;;5106544;28;20684;-77
2023/10/26 00:39:28;;;;;;;1.30;1.00;;;13.80;1.00;;;;;;5102353;28;20545;-76
2023/10/26 00:41:55;;;;;;;1.40;1.00;;;13.80;1.00;;;;;;5103934;27;20664;-76
2023/10/26 00:44:22;;;;;;;1.33;0.93;;;13.80;1.00;;;;;;5102218;28;20199;-78
2023/10/26 00:46:53;;;;;;;6.27;1.10;;;13.80;1.00;;;;;;5098657;28;20465;-80
2023/10/26 00:49:20;;;;;;;2.03;1.00;;;13.80;1.00;;;;;;5100528;28;20835;-75
2023/10/26 00:51:52;;;;;;;1.10;0.80;;;13.80;1.00;;;;;;5105099;28;20488;-78
2023/10/26 00:54:20;;;;;;;3.50;1.00;;;13.80;1.00;;;;;;5095292;28;20441;-75
2023/10/26 00:56:47;;;;;;;1.30;1.17;;;16.80;1.00;;;;;;5102401;28;20745;-79
2023/10/26 00:59:15;;;;;;;1.33;1.13;;;13.70;1.00;;;;;;5094128;28;20437;-77
2023/10/26 01:01:42;;;;;;;1.27;1.00;;;13.70;1.00;;;;;;5092551;28;20457;-77
2023/10/26 01:04:07;;;;;;;2.17;1.00;;;13.70;1.00;;;;;;5097517;28;20437;-78
2023/10/26 01:06:33;;;;;;;1.97;1.10;;;13.70;1.00;;;;;;5102088;28;20463;-80
2023/10/26 01:08:59;;;;;;;1.10;0.80;;;13.70;1.00;;;;;;5097959;28;20186;-75
2023/10/26 01:11:24;;;;;;;1.30;0.90;;;13.70;1.00;;;;;;5106931;28;20272;-80
2023/10/26 01:13:50;;;;;;;1.10;1.00;;;13.70;1.00;;;;;;5092091;28;20183;-79
2023/10/26 01:16:16;;;;;;;1.20;0.90;;;13.70;1.00;;;;;;5105929;28;20654;-78
2023/10/26 01:18:41;;;;;;;2.27;1.20;;;13.70;1.00;;;;;;5107183;28;20181;-78
2023/10/26 01:21:09;;;;;;;1.30;0.97;;;13.70;1.00;;;;;;5102742;28;20183;-82
2023/10/26 01:23:35;;;;;;;1.97;1.00;;;13.70;1.00;;;;;;5096412;28;20194;-78
2023/10/26 01:26:00;;;;;;;2.23;1.10;;;13.50;1.00;;;;;;5097055;28;20461;-76
2023/10/26 01:28:26;;;;;;;3.20;1.20;;;13.60;1.00;;;;;;5095724;28;20609;-78
2023/10/26 01:30:52;;;;;;;1.20;0.93;;;13.70;1.00;;;;;;5106484;28;20355;-82
2023/10/26 01:33:18;;;;;;;1.77;1.10;;;13.70;1.00;;;;;;5094955;28;20777;-76
2023/10/26 01:35:45;;;;;;;3.10;1.10;;;13.70;1.00;;;;;;5095785;28;20529;-78
2023/10/26 01:38:12;;;;;;;1.40;0.90;;;13.70;1.00;;;;;;5099814;28;20187;-78
2023/10/26 01:40:37;;;;;;;1.30;0.90;;;13.70;1.00;;;;;;5098738;28;20487;-77
2023/10/26 01:43:03;;;;;;;1.10;0.87;;;13.70;1.00;;;;;;5100314;28;20434;-78
2023/10/26 01:45:28;;;;;;;2.20;1.10;;;13.80;1.00;;;;;;5101393;28;20243;-82
2023/10/26 01:47:54;;;;;;;2.07;1.30;;;13.80;1.00;;;;;;5100271;28;20537;-80
2023/10/26 01:50:20;;;;;;;1.50;0.97;;;13.80;1.00;;;;;;5105436;28;20194;-78
2023/10/26 01:52:45;;;;;;;12.30;1.20;;;13.80;1.00;;;;;;5105307;28;20229;-78
2023/10/26 01:55:11;;;;;;;1.97;1.00;;;13.70;1.00;;;;;;5099651;28;20180;-78
2023/10/26 01:57:36;;;;;;;1.43;1.00;;;13.50;1.00;;;;;;5094478;28;20685;-80
2023/10/26 02:00:03;;;;;;;1.00;0.70;;;13.60;1.00;;;;;;5100351;28;20179;-76
2023/10/26 02:02:28;;;;;;;1.10;0.90;;;13.60;1.00;;;;;;5099877;28;20194;-77
2023/10/26 02:04:54;;;;;;;4.03;1.03;;;13.60;1.00;;;;;;5099381;28;20450;-79
2023/10/26 02:07:20;;;;;;;1.13;1.00;;;13.60;1.00;;;;;;5104971;28;20206;-78
2023/10/26 02:09:46;;;;;;;5.93;1.10;;;13.60;1.00;;;;;;5106506;28;20451;-79
2023/10/26 02:12:11;;;;;;;2.90;1.10;;;13.70;1.00;;;;;;5092221;28;20461;-78
2023/10/26 02:14:37;;;;;;;1.40;1.00;;;13.60;1.00;;;;;;5091422;28;20283;-80
2023/10/26 02:17:04;;;;;;;2.07;1.10;;;13.60;1.00;;;;;;5101047;28;20199;-76
2023/10/26 02:19:29;;;;;;;1.20;0.90;;;13.60;1.00;;;;;;5106551;28;21309;-74
2023/10/26 02:21:55;;;;;;;2.97;1.10;;;13.60;1.00;;;;;;5098070;28;20479;-77
2023/10/26 02:24:20;;;;;;;1.33;0.97;;;13.60;1.00;;;;;;5094997;28;20191;-78
2023/10/26 02:26:46;;;;;;;1.43;1.07;;;13.60;1.00;;;;;;5104438;28;20207;-80
2023/10/26 02:29:11;;;;;;;1.20;1.10;;;13.60;1.00;;;;;;5100748;28;20190;-77
2023/10/26 02:31:37;;;;;;;1.30;0.97;;;13.60;1.00;;;;;;5098137;28;20569;-78
2023/10/26 02:34:02;;;;;;;1.50;0.93;;;13.50;1.00;;;;;;5099514;28;20281;-77
2023/10/26 02:36:28;;;;;;;2.80;1.20;;;13.50;1.00;;;;;;5099515;28;20203;-77
2023/10/26 02:38:53;;;;;;;1.80;1.20;;;13.50;1.00;;;;;;5097856;28;20179;-78
2023/10/26 02:41:19;;;;;;;1.23;0.97;;;13.50;1.00;;;;;;5101055;28;20591;-78
2023/10/26 02:43:44;;;;;;;1.40;1.10;;;13.60;1.00;;;;;;5100865;28;20207;-78
2023/10/26 02:46:10;;;;;;;1.47;1.20;;;13.60;1.00;;;;;;5094178;28;20483;-77
2023/10/26 02:48:35;;;;;;;3.97;1.20;;;13.50;1.00;;;;;;5101063;28;20550;-79
2023/10/26 02:51:01;;;;;;;1.97;1.20;;;13.50;1.00;;;;;;5094890;28;20354;-82
2023/10/26 02:53:27;;;;;;;2.17;1.20;;;13.50;1.00;;;;;;5092930;28;20545;-78
2023/10/26 02:55:52;;;;;;;2.13;1.53;;;13.50;1.00;;;;;;5092407;28;20195;-78
2023/10/26 02:58:18;;;;;;;2.90;1.30;;;13.60;1.00;;;;;;5100688;28;20171;-78
2023/10/26 03:00:43;;;;;;;2.00;1.30;;;13.60;1.00;;;;;;5103131;28;20638;-80
2023/10/26 03:03:09;;;;;;;1.70;1.40;;;13.60;1.00;;;;;;5102708;28;20195;-77
2023/10/26 03:05:35;;;;;;;3.30;1.77;;;13.60;1.00;;;;;;5097556;28;20224;-78
2023/10/26 03:08:01;;;;;;;4.53;1.40;;;13.60;1.00;;;;;;5106871;28;20274;-79
2023/10/26 03:10:28;;;;;;;2.00;1.30;;;13.70;1.00;;;;;;5096401;28;20601;-75
2023/10/26 03:12:53;;;;;;;13.90;1.33;;;13.70;1.00;;;;;;5096407;28;20214;-79
2023/10/26 03:15:19;;;;;;;6.73;1.40;;;13.70;1.00;;;;;;5095212;28;20696;-78
2023/10/26 03:17:44;;;;;;;3.20;1.20;;;13.70;1.00;;;;;;5091088;28;20211;-78
2023/10/26 03:20:11;;;;;;;1.80;1.23;;;13.60;1.00;;;;;;5098711;28;20175;-80
2023/10/26 03:22:37;;;;;;;1.33;1.10;;;13.50;1.00;;;;;;5099364;28;20195;-78
2023/10/26 03:25:03;;;;;;;1.53;1.17;;;13.50;1.00;;;;;;5098655;28;20433;-81
2023/10/26 03:27:29;;;;;;;2.73;1.10;;;13.60;1.00;;;;;;5090733;28;20202;-81
2023/10/26 03:29:55;;;;;;;1.30;0.97;;;13.60;1.00;;;;;;5105925;28;20444;-79
2023/10/26 03:32:20;;;;;;;1.63;1.10;;;13.60;1.00;;;;;;5096315;28;20235;-78
2023/10/26 03:34:46;;;;;;;2.40;1.20;;;13.70;1.00;;;;;;5096179;28;20561;-77
2023/10/26 03:37:11;;;;;;;3.80;1.40;;;13.60;1.00;;;;;;5104555;28;20417;-76
2023/10/26 03:39:37;;;;;;;2.47;1.00;;;13.60;1.00;;;;;;5107693;28;20194;-77
2023/10/26 03:42:02;;;;;;;6.27;1.20;;;13.60;1.00;;;;;;5105971;28;20292;-78
2023/10/26 03:44:28;;;;;;;2.10;1.20;;;13.60;1.00;;;;;;5104324;28;20661;-79
2023/10/26 03:46:54;;;;;;;1.73;1.03;;;13.60;1.00;;;;;;5109830;28;20267;-78
2023/10/26 03:49:20;;;;;;;2.03;1.37;;;13.70;1.00;;;;;;5105398;28;20217;-75
2023/10/26 03:51:46;;;;;;;1.80;0.90;;;13.80;1.00;;;;;;5103882;28;20558;-77
2023/10/26 03:54:12;;;;;;;4.90;1.43;;;13.80;1.00;;;;;;5107617;28;20462;-77
2023/10/26 03:56:38;;;;;;;2.53;1.30;;;13.80;1.00;;;;;;5103394;28;20505;-77
2023/10/26 03:59:03;;;;;;;2.10;1.40;;;13.80;1.00;;;;;;5099117;28;20194;-78
2023/10/26 04:01:29;;;;;;;4.10;1.40;;;13.90;1.00;;;;;;5099831;28;20188;-77
2023/10/26 04:03:54;;;;;;;2.50;1.07;;;13.80;1.00;;;;;;5102470;28;20180;-78
2023/10/26 04:06:20;;;;;;;1.60;1.50;;;13.80;1.00;;;;;;5105537;28;20195;-78
2023/10/26 04:08:45;;;;;;;1.93;1.20;;;13.90;1.00;;;;;;5107737;28;20236;-78
2023/10/26 04:11:17;;;;;;;2.07;1.50;;;13.90;1.00;;;;;;5107031;28;20206;-77
2023/10/26 04:13:43;;;;;;;1.97;1.30;;;13.80;1.00;;;;;;5108644;28;20179;-80
2023/10/26 04:16:08;;;;;;;7.90;1.60;;;13.80;1.00;;;;;;5103454;28;20499;-77
2023/10/26 04:18:34;;;;;;;1.50;1.30;;;13.80;1.00;;;;;;5106031;28;20218;-78
2023/10/26 04:21:00;;;;;;;4.03;1.60;;;13.90;1.00;;;;;;5103776;28;20179;-78
2023/10/26 04:23:26;;;;;;;5.37;1.47;;;13.80;1.00;;;;;;5101496;28;20187;-80
2023/10/26 04:25:52;;;;;;;1.87;1.57;;;13.80;1.00;;;;;;5094616;28;20214;-77
2023/10/26 04:28:18;;;;;;;3.20;1.60;;;13.90;1.00;;;;;;5099901;28;20500;-80
2023/10/26 04:30:47;;;;;;;1.93;1.43;;;13.90;1.00;;;;;;5109056;28;20187;-79
2023/10/26 04:33:13;;;;;;;3.37;1.80;;;13.90;1.00;;;;;;5099173;28;20493;-79
2023/10/26 04:35:43;;;;;;;3.20;1.77;;;13.80;1.00;;;;;;5091120;28;20444;-78
2023/10/26 04:38:09;;;;;;;2.97;1.70;;;13.80;1.00;;;;;;5103475;28;20441;-80
2023/10/26 04:40:37;;;;;;;4.70;1.97;;;13.80;1.00;;;;;;5100374;28;20803;-78
2023/10/26 04:43:03;;;;;;;3.07;1.80;;;13.80;1.00;;;;;;5091304;28;20180;-78
2023/10/26 04:45:29;;;;;;;4.13;1.50;;;13.80;1.00;;;;;;5100036;28;20486;-79
2023/10/26 04:47:54;;;;;;;4.27;1.50;;;13.80;1.00;;;;;;5107483;28;20440;-81
2023/10/26 04:50:20;;;;;;;1.80;1.60;;;13.70;1.00;;;;;;5105120;28;20183;-77
2023/10/26 04:52:47;;;;;;;2.40;1.37;;;13.70;1.00;;;;;;5104156;28;20700;-79
2023/10/26 04:55:13;;;;;;;2.23;1.60;;;13.70;1.00;;;;;;5098822;28;20172;-80
2023/10/26 04:57:39;;;;;;;3.67;1.57;;;13.70;1.00;;;;;;5100887;28;20450;-80
2023/10/26 05:00:09;;;;;;;2.10;1.90;;;13.70;1.00;;;;;;5103531;27;20200;-78
2023/10/26 05:02:38;;;;;;;6.67;3.30;;;13.70;1.00;;;;;;5094087;28;20272;-78
2023/10/26 05:05:04;;;;;;;3.80;2.20;;;13.70;1.00;;;;;;5103022;28;20430;-78
2023/10/26 05:07:30;;;;;;;2.40;2.10;;;13.60;1.00;;;;;;5102237;28;20468;-78
2023/10/26 05:09:56;;;;;;;3.00;2.20;;;13.60;1.00;;;;;;5099863;28;20452;-79
2023/10/26 05:12:22;;;;;;;3.03;2.10;;;13.60;1.00;;;;;;5102332;28;20948;-77
2023/10/26 05:14:48;;;;;;;3.53;2.50;;;13.60;1.00;;;;;;5104532;28;20455;-79
2023/10/26 05:17:13;;;;;;;3.90;2.30;;;13.60;1.00;;;;;;5104765;28;20210;-79
2023/10/26 05:19:39;;;;;;;3.13;2.70;;;13.50;1.00;;;;;;5106951;28;20191;-77
2023/10/26 05:22:04;;;;;;;3.60;2.90;;;13.60;1.00;;;;;;5105482;28;20656;-79
2023/10/26 05:24:30;;;;;;;6.23;3.10;;;13.50;1.00;;;;;;5094085;28;20214;-79
2023/10/26 05:26:56;;;;;;;3.93;2.90;;;13.40;1.00;;;;;;5095286;28;20210;-80
2023/10/26 05:29:21;;;;;;;3.97;2.90;;;13.30;1.00;;;;;;5103567;28;20199;-75
2023/10/26 05:31:47;;;;;;;4.23;2.90;;;13.30;1.00;;;;;;5095867;28;20199;-77
2023/10/26 05:34:13;;;;;;;4.20;2.60;;;13.30;1.00;;;;;;5098453;28;20220;-79
2023/10/26 05:36:39;;;;;;;4.80;2.87;;;13.30;1.00;;;;;;5106917;28;20210;-81
2023/10/26 05:39:05;;;;;;;4.13;2.80;;;13.30;1.00;;;;;;5096659;28;20274;-78
2023/10/26 05:41:30;;;;;;;4.50;3.20;;;13.30;1.00;;;;;;5090315;28;20537;-80
2023/10/26 05:43:56;;;;;;;3.47;2.73;;;13.30;1.00;;;;;;5090856;28;20979;-78
2023/10/26 05:46:21;;;;;;;3.93;2.97;;;13.40;1.00;;;;;;5095984;28;20211;-79
2023/10/26 05:48:46;;;;;;;5.33;3.20;;;13.40;1.00;;;;;;5090024;28;20202;-78
2023/10/26 05:51:12;;;;;;;5.43;3.60;;;13.40;1.00;;;;;;5096949;28;20211;-78
2023/10/26 05:53:38;;;;;;;3.83;3.23;;;13.40;1.00;;;;;;5097121;28;20179;-78
2023/10/26 05:56:04;;;;;;;5.30;3.70;;;14.60;1.00;;;;;;5098203;28;20206;-81
2023/10/26 05:58:29;;;;;;;6.00;4.47;;;13.40;1.00;;;;;;5095792;28;20187;-77
2023/10/26 06:00:55;;;;;;;4.40;3.50;;;13.40;1.00;;;;;;5092131;28;20792;-76
2023/10/26 06:03:21;;;;;;;4.77;3.10;;;13.30;1.00;;;;;;5099802;28;20197;-77
2023/10/26 06:05:50;;;;;;;5.07;3.00;;;13.30;1.00;;;;;;5096982;28;20685;-77
2023/10/26 06:08:15;;;;;;;4.97;3.40;;;13.30;1.00;;;;;;5095302;28;20641;-78
2023/10/26 06:10:41;;;;;;;5.47;3.30;;;13.30;1.00;;;;;;5098826;28;20409;-76
2023/10/26 06:13:10;;;;;;;5.07;3.57;;;13.40;1.00;;;;;;5095087;28;20249;-78
2023/10/26 06:15:36;;;;;;;5.70;3.83;;;13.40;1.00;;;;;;5090676;28;20188;-78
2023/10/26 06:18:02;;;;;;;6.63;3.53;;;13.40;1.00;;;;;;5095300;28;20418;-77
2023/10/26 06:20:28;;;;;;;5.77;3.70;;;13.40;1.00;;;;;;5092708;28;20176;-77
2023/10/26 06:22:54;;;;;;;5.97;4.13;;;13.40;1.00;;;;;;5093866;28;20190;-80
2023/10/26 06:25:20;;;;;;;6.50;3.60;;;13.40;1.00;;;;;;5095695;28;20195;-75
2023/10/26 06:27:47;;;;;;;6.20;3.80;;;13.40;1.00;;;;;;5097981;28;20460;-78
2023/10/26 06:30:15;;;;;;;3.53;2.90;;;13.40;1.00;;;;;;5089687;28;20503;-80
2023/10/26 06:32:40;;;;;;;6.47;2.90;;;13.40;1.00;;;;;;5091782;28;20492;-77
2023/10/26 06:35:06;;;;;;;5.83;3.27;;;13.50;1.00;;;;;;5088612;28;20453;-77
2023/10/26 06:37:32;;;;;;;5.27;3.10;;;13.50;1.00;;;;;;5096524;28;20277;-78
2023/10/26 06:39:57;;;;;;;4.10;3.30;;;13.40;1.00;;;;;;5098258;28;20231;-77
2023/10/26 06:42:23;;;;;;;6.70;3.17;;;13.40;1.00;;;;;;5092237;28;20191;-76
2023/10/26 06:44:48;;;;;;;6.20;2.87;;;13.40;1.00;;;;;;5094085;28;20659;-77
2023/10/26 06:47:14;;;;;;;3.60;2.87;;;13.40;1.00;;;;;;5094654;28;20206;-78
2023/10/26 06:49:41;;;;;;;2.90;2.33;;;13.50;1.00;;;;;;5099493;28;20191;-77
2023/10/26 06:52:07;;;;;;;4.30;2.80;;;13.50;1.00;;;;;;5108413;28;20206;-77
2023/10/26 06:54:33;;;;;;;3.33;2.23;;;13.50;1.00;;;;;;5094862;28;20416;-77
2023/10/26 06:56:59;;;;;;;3.13;2.23;;;13.40;1.00;;;;;;5088765;28;20227;-79
2023/10/26 06:59:24;;;;;;;4.83;2.47;;;13.50;1.00;;;;;;5088869;28;20187;-79
2023/10/26 07:01:50;;;;;;;3.77;2.13;;;13.50;1.00;;;;;;5088968;28;20426;-75
2023/10/26 07:04:16;;;;;;;1.80;1.60;;;13.60;1.00;;;;;;5089843;28;20660;-77
2023/10/26 07:06:42;;;;;;;2.77;1.70;;;13.60;1.00;;;;;;5089173;28;20491;-77
2023/10/26 07:09:07;;;;;;;4.43;1.60;;;13.60;1.00;;;;;;5088180;28;20187;-77
2023/10/26 07:11:33;;;;;;;2.43;1.57;;;13.70;1.00;;;;;;5098665;28;20267;-78
2023/10/26 07:13:59;;;;;;;2.23;1.73;;;13.80;1.00;;;;;;5114680;28;20179;-77
2023/10/26 07:16:25;;;;;;;4.80;2.80;;;13.80;1.00;;;;;;5114011;28;20706;-77
2023/10/26 07:18:51;;;;;;;4.90;2.30;;;14.10;1.00;;;;;;5098817;28;20187;-78
2023/10/26 07:21:17;;;;;;;7.30;1.90;;;14.10;1.00;;;;;;5093516;28;20186;-77
2023/10/26 07:23:42;;;;;;;6.40;1.70;;;14.00;1.00;;;;;;5093365;28;20898;-77
2023/10/26 07:26:08;;;;;;;2.03;1.73;;;14.00;1.00;;;;;;5097546;28;20217;-78
2023/10/26 07:28:33;;;;;;;2.10;1.70;;;14.20;1.00;;;;;;5092810;28;20195;-76
2023/10/26 07:30:59;;;;;;;2.23;1.67;;;14.20;1.00;;;;;;5093216;28;20187;-77
2023/10/26 07:33:24;;;;;;;5.00;1.40;;;14.30;1.00;;;;;;5093561;28;20183;-77
2023/10/26 07:35:58;;;;;;;6.73;1.57;;;14.50;1.00;;;;;;5092835;28;20211;-79
2023/10/26 07:38:26;;;;;;;4.30;1.67;;;14.70;1.00;;;;;;5093375;28;20610;-77
2023/10/26 07:40:54;;;;;;;5.57;1.57;;;14.80;1.00;;;;;;5092538;28;20498;-77
2023/10/26 07:43:20;;;;;;;1.60;1.30;;;14.90;1.00;;;;;;5093359;28;20472;-78
2023/10/26 07:45:47;;;;;;;4.10;1.50;;;15.10;1.00;;;;;;5111367;28;20504;-78
2023/10/26 07:48:13;;;;;;;5.93;1.50;;;15.10;1.00;;;;;;5113290;28;20416;-78
2023/10/26 07:50:38;;;;;;;1.90;1.50;;;15.10;1.00;;;;;;5095618;28;20466;-77
2023/10/26 07:53:05;;;;;;;2.73;1.47;;;15.20;1.00;;;;;;5093072;28;20215;-78
2023/10/26 07:55:31;;;;;;;4.20;1.70;;;15.40;1.00;;;;;;5097397;28;20453;-77
2023/10/26 07:57:57;;;;;;;1.80;1.50;;;15.40;1.00;;;;;;5092631;28;20453;-77
2023/10/26 08:00:22;;;;;;;4.93;1.73;;;15.30;1.00;;;;;;5092851;28;20172;-77
2023/10/26 08:02:48;;;;;;;2.03;1.50;;;15.30;1.00;;;;;;5092459;28;20248;-77
2023/10/26 08:05:15;;;;;;;3.53;1.70;;;15.20;1.00;;;;;;5092881;28;20217;-78
2023/10/26 08:07:41;;;;;;;4.27;1.87;;;15.10;1.00;;;;;;5092304;28;20199;-77
2023/10/26 08:10:09;;;;;;;1.77;1.23;;;15.10;1.00;;;;;;5092452;28;20880;-77
2023/10/26 08:12:34;;;;;;;3.13;1.70;;;15.20;1.00;;;;;;5091517;28;20796;-77
2023/10/26 08:15:02;;;;;;;2.37;1.60;;;15.30;1.00;;;;;;5104268;28;20565;-77
2023/10/26 08:17:28;;;;;;;3.80;1.53;;;15.30;1.00;;;;;;5107159;28;20188;-76
2023/10/26 08:19:54;;;;;;;2.57;1.70;;;15.30;1.00;;;;;;5092151;28;20422;-77
2023/10/26 08:22:21;;;;;;;2.07;1.50;;;16.30;1.00;;;;;;5092350;28;20426;-77
2023/10/26 08:24:47;;;;;;;2.30;1.80;;;15.10;1.00;;;;;;5096962;28;20935;-79
2023/10/26 08:27:13;;;;;;;2.70;1.67;;;15.00;1.00;;;;;;5097251;28;20485;-77
2023/10/26 08:29:38;;;;;;;2.53;1.93;;;15.10;1.00;;;;;;5112282;28;20946;-78
2023/10/26 08:32:04;;;;;;;2.93;1.67;;;15.10;1.00;;;;;;5112307;28;20218;-75
2023/10/26 08:34:30;;;;;;;5.80;2.10;;;15.00;1.00;;;;;;5111596;28;20186;-77
2023/10/26 08:36:55;;;;;;;2.53;1.80;;;14.80;1.00;;;;;;5112165;28;20444;-77
2023/10/26 08:39:21;;;;;;;2.17;1.50;;;14.90;1.00;;;;;;5112319;28;20179;-78
2023/10/26 08:41:57;;;;;;;4.80;1.60;;;14.80;1.00;;;;;;5112054;28;20179;-77
2023/10/26 08:44:25;;;;;;;4.70;1.60;;;14.10;1.00;;;;;;5111162;28;20364;-77
2023/10/26 08:46:53;;;;;;;7.17;1.50;;;14.80;1.00;;;;;;5111778;28;20819;-77
2023/10/26 08:49:21;;;;;;;2.57;1.70;;;14.80;1.00;;;;;;5112471;28;20429;-75
2023/10/26 08:51:47;;;;;;;2.40;1.80;;;14.80;1.00;;;;;;5112079;28;20459;-77
2023/10/26 08:54:12;;;;;;;2.70;1.60;;;14.90;1.00;;;;;;5112273;27;20420;-77
2023/10/26 08:56:38;;;;;;;1.50;1.33;;;14.80;1.00;;;;;;5095674;28;20207;-77
2023/10/26 08:59:04;;;;;;;1.83;1.60;;;14.80;1.00;;;;;;5111404;28;20186;-77
2023/10/26 09:01:30;;;;;;;2.23;1.40;;;14.70;1.00;;;;;;5111993;28;20253;-79
2023/10/26 09:03:55;;;;;;;2.00;1.40;;;14.70;1.00;;;;;;5111764;28;20431;-77
2023/10/26 09:06:21;;;;;;;2.37;1.40;;;14.60;1.00;;;;;;5097594;27;20711;-77
2023/10/26 09:09:01;;;;;;;3.80;1.50;;;14.60;1.00;;;;;;5095420;28;20695;-78
2023/10/26 09:11:27;;;;;;;3.77;1.47;;;16.80;1.00;;;;;;5109237;28;20705;-77
2023/10/26 09:13:52;;;;;;;2.70;1.60;;;14.40;1.00;;;;;;5111635;28;20421;-76
2023/10/26 09:16:19;;;;;;;2.67;2.00;;;14.40;1.00;;;;;;5111860;28;20205;-77
2023/10/26 09:18:53;;;;;;;2.10;1.70;;;14.40;1.00;;;;;;5094756;28;20531;-76
2023/10/26 09:21:18;;;;;;;1.63;1.40;;;14.40;1.00;;;;;;5105004;28;20422;-77
2023/10/26 09:23:45;;;;;;;1.50;1.20;;;14.40;1.00;;;;;;5111458;28;20485;-75
2023/10/26 09:26:11;;;;;;;2.40;1.47;;;14.10;1.00;;;;;;5103032;28;20203;-77
2023/10/26 09:28:52;;;;;;;5.67;1.50;;;14.00;1.00;;;;;;5095299;28;20509;-76
2023/10/26 09:31:18;;;;;;;9.40;1.70;;;13.80;1.00;;;;;;5090746;28;20646;-76
2023/10/26 09:33:45;;;;;;;3.57;1.80;;;13.70;1.00;;;;;;5090482;28;20440;-75
2023/10/26 09:36:12;;;;;;;5.20;1.80;;;13.50;1.00;;;;;;5111250;28;20260;-76
2023/10/26 09:38:39;;;;;;;3.00;1.73;;;13.40;1.00;;;;;;5111309;28;20513;-78
2023/10/26 09:41:07;;;;;;;3.23;1.70;;;13.30;1.00;;;;;;5110697;28;20957;-76
2023/10/26 09:43:33;;;;;;;1.67;1.50;;;13.70;1.00;;;;;;5111299;28;20505;-75
2023/10/26 09:45:59;;;;;;;1.93;1.57;;;13.20;1.00;;;;;;5109264;28;20968;-76
2023/10/26 09:48:26;;;;;;;5.83;1.87;;;13.10;1.00;;;;;;5103554;28;20431;-76
2023/10/26 09:50:52;;;;;;;3.03;1.70;;;13.10;1.00;;;;;;5108920;28;20183;-72
2023/10/26 09:53:20;;;;;;;1.87;1.60;;;13.10;1.00;;;;;;5104996;28;20877;-76
2023/10/26 09:55:48;;;;;;;4.27;2.00;;;12.90;1.00;;;;;;5096439;28;21069;-74
2023/10/26 09:58:16;;;;;;;4.50;2.10;;;12.90;1.00;;;;;;5098373;28;20430;-76
2023/10/26 10:00:42;;;;;;;3.40;2.13;;;12.80;1.00;;;;;;5090418;28;20946;-76
2023/10/26 10:03:12;;;;;;;4.97;2.20;;;12.80;1.00;;;;;;5093131;28;20461;-76
2023/10/26 10:05:39;;;;;;;3.60;1.90;;;13.00;1.00;;;;;;5110661;28;20186;-76
2023/10/26 10:08:06;;;;;;;8.33;2.60;;;13.00;1.00;;;;;;5110333;28;20433;-75
2023/10/26 10:10:32;;;;;;;6.33;2.10;;;13.10;1.00;;;;;;5109214;28;20486;-75
2023/10/26 10:12:58;;;;;;;3.57;2.00;;;13.20;1.00;;;;;;5109651;28;20954;-76
2023/10/26 10:15:39;;;;;;;3.10;2.00;;;13.30;1.00;;;;;;5110664;28;20425;-76
2023/10/26 10:18:09;;;;;;;3.13;2.00;;;13.40;1.00;;;;;;5110380;28;20261;-76
2023/10/26 10:20:36;;;;;;;4.60;2.33;;;13.40;1.00;;;;;;5110683;28;20425;-76
2023/10/26 10:23:03;;;;;;;6.33;2.57;;;15.30;1.00;;;;;;5110062;28;20423;-76
2023/10/26 10:25:50;;;;;;;3.00;2.20;;;13.60;1.00;;;;;;5109964;28;20456;-75
2023/10/26 10:28:19;;;;;;;7.80;2.20;;;13.70;1.00;;;;;;5110313;28;20425;-76
2023/10/26 10:31:03;;;;;;;2.60;1.90;;;13.60;1.00;;;;;;5110405;28;20947;-76
2023/10/26 10:33:29;;;;;;;8.97;2.10;;;13.60;1.00;;;;;;5090189;28;20420;-76
2023/10/26 10:36:04;;;;;;;3.17;2.30;;;13.60;1.00;;;;;;5089306;28;20442;-76
2023/10/26 10:38:31;;;;;;;3.30;2.30;;;13.60;1.00;;;;;;5092471;28;20625;-75
2023/10/26 10:41:00;;;;;;;4.63;2.50;;;13.70;1.00;;;;;;5089248;28;20417;-77
2023/10/26 10:43:44;;;;;;;4.37;2.33;;;13.90;1.00;;;;;;5090173;28;20417;-76
2023/10/26 10:46:12;;;;;;;8.07;2.57;;;13.90;1.00;;;;;;5089469;28;20531;-76
2023/10/26 10:48:58;;;;;;;4.57;2.43;;;13.90;1.00;;;;;;5110008;28;20492;-76
2023/10/26 10:51:28;;;;;;;3.90;2.60;;;13.90;1.00;;;;;;5089499;28;20461;-77
2023/10/26 10:53:53;;;;;;;3.40;2.60;;;13.70;1.00;;;;;;5089378;28;20435;-77
2023/10/26 10:56:19;;;;;;;6.53;2.80;;;13.60;1.00;;;;;;5096457;28;20521;-77
2023/10/26 10:58:44;;;;;;;7.80;3.00;;;13.60;1.00;;;;;;5089464;28;20188;-77
2023/10/26 11:01:16;;;;;;;4.53;2.80;;;13.80;1.00;;;;;;5089097;28;20176;-76
2023/10/26 11:03:42;;;;;;;3.70;2.60;;;13.80;1.00;;;;;;5089936;28;20681;-77
2023/10/26 11:06:18;;;;;;;7.40;3.00;;;13.90;1.00;;;;;;5091788;28;20442;-76
2023/10/26 11:08:44;;;;;;;4.70;2.77;;;14.00;1.00;;;;;;5089580;28;20235;-76
2023/10/26 11:11:26;;;;;;;3.63;2.83;;;14.10;1.00;;;;;;5087472;28;20805;-78
2023/10/26 11:14:08;;;;;;;6.63;2.60;;;14.20;1.00;;;;;;5089402;28;20417;-80
2023/10/26 11:16:35;;;;;;;5.20;3.10;;;14.10;1.00;;;;;;5089438;28;20445;-77
2023/10/26 11:19:01;;;;;;;9.00;3.30;;;14.00;1.00;;;;;;5103400;28;20492;-77
2023/10/26 11:21:26;;;;;;;7.90;3.27;;;14.00;1.00;;;;;;5089378;28;20560;-76
2023/10/26 11:23:52;;;;;;;3.80;2.63;;;14.10;1.00;;;;;;5089424;28;20464;-77
2023/10/26 11:26:17;;;;;;;6.03;2.67;;;14.00;1.00;;;;;;5106138;28;20192;-76
2023/10/26 11:28:43;;;;;;;6.23;2.80;;;14.30;1.00;;;;;;5089254;28;20215;-77
2023/10/26 11:31:08;;;;;;;3.53;2.70;;;13.90;1.00;;;;;;5088738;28;20692;-76
2023/10/26 11:33:37;;;;;;;5.50;2.87;;;14.00;1.00;;;;;;5089761;28;20222;-76
2023/10/26 11:36:09;;;;;;;5.07;2.50;;;14.00;1.00;;;;;;5087524;28;20577;-77
2023/10/26 11:38:34;;;;;;;3.90;2.40;;;13.90;1.00;;;;;;5089282;28;20422;-77
2023/10/26 11:41:00;;;;;;;5.03;1.67;;;13.80;1.00;;;;;;5088627;28;20433;-77
2023/10/26 11:43:35;;;;;;;5.90;2.10;;;14.00;1.00;;;;;;5089722;28;20176;-76
2023/10/26 11:46:02;;;;;;;6.50;2.00;;;14.30;1.00;;;;;;5089901;28;20199;-77
2023/10/26 11:48:30;;;;;;;4.60;1.73;;;14.70;1.00;;;;;;5109528;28;20535;-77
2023/10/26 11:50:57;;;;;;;3.10;1.70;;;14.80;1.00;;;;;;5108767;28;20424;-77
2023/10/26 11:53:23;;;;;;;6.13;1.70;;;14.80;1.00;;;;;;5109638;28;20760;-77
2023/10/26 11:55:49;;;;;;;3.10;1.57;;;15.00;1.00;;;;;;5101788;28;20437;-77
2023/10/26 11:58:15;;;;;;;2.00;1.60;;;15.40;1.00;;;;;;5091808;28;20741;-77
2023/10/26 12:00:42;;;;;;;2.33;1.30;;;15.80;1.00;;;;;;5092976;28;20497;-77
2023/10/26 12:03:08;;;;;;;2.20;1.30;;;15.60;1.00;;;;;;5094323;28;20184;-77
2023/10/26 12:05:34;;;;;;;6.20;2.00;;;15.60;1.00;;;;;;5112949;28;20497;-76
2023/10/26 12:07:59;;;;;;;1.93;1.57;;;15.60;1.00;;;;;;5112759;28;20428;-76
2023/10/26 12:10:25;;;;;;;2.67;1.60;;;15.90;1.00;;;;;;5112985;28;20206;-77
2023/10/26 12:12:51;;;;;;;1.80;1.40;;;16.00;1.00;;;;;;5112961;28;20202;-77
2023/10/26 12:15:18;;;;;;;2.20;1.40;;;16.20;1.00;;;;;;5112580;28;20210;-76
2023/10/26 12:17:44;;;;;;;2.63;1.40;;;16.60;1.00;;;;;;5104854;28;20437;-76
2023/10/26 12:20:11;;;;;;;2.30;1.50;;;16.90;1.00;;;;;;5091974;28;20418;-77
2023/10/26 12:22:37;;;;;;;3.33;1.27;;;16.80;1.00;;;;;;5092435;28;20434;-77
2023/10/26 12:25:04;;;;;;;2.87;1.60;;;16.90;1.00;;;;;;5099988;28;20477;-77
2023/10/26 12:27:30;;;;;;;9.40;1.53;;;17.00;1.00;;;;;;5105143;28;20905;-76
2023/10/26 12:29:56;;;;;;;1.60;1.20;;;17.10;1.00;;;;;;5112603;27;20475;-79
2023/10/26 12:32:23;;;;;;;3.37;1.80;;;16.70;1.00;;;;;;5112231;28;20488;-77
2023/10/26 12:34:49;;;;;;;3.33;1.70;;;16.50;1.00;;;;;;5112914;28;20310;-77
2023/10/26 12:37:15;;;;;;;2.10;1.50;;;16.40;1.00;;;;;;5111992;28;20511;-77
2023/10/26 12:39:40;;;;;;;2.00;1.27;;;16.40;1.00;;;;;;5112370;28;20186;-79
2023/10/26 12:42:06;;;;;;;2.30;1.70;;;16.70;1.00;;;;;;5111978;28;20186;-78
2023/10/26 12:44:31;;;;;;;4.33;1.50;;;16.70;1.00;;;;;;5112336;28;20354;-78
2023/10/26 12:46:57;;;;;;;3.13;1.27;;;16.30;1.00;;;;;;5108746;28;20221;-77
2023/10/26 12:49:22;;;;;;;2.70;1.53;;;16.50;1.00;;;;;;5111785;28;20609;-75
2023/10/26 12:51:49;;;;;;;2.70;1.50;;;16.90;1.00;;;;;;5110734;28;20214;-77
2023/10/26 12:54:14;;;;;;;3.03;1.33;;;16.90;1.00;;;;;;5108815;28;20615;-77